Sneedville, Tennessee
Current Conditions -  °F | °C
As of 5:55 PM on Thursday 18 Dec 2014 (Local Time) from K0VG Reporting Station
Overcast Overcast  
Wind Chill: 39°   Ceiling: 4100
Heat Index: 39°   Visibility: 10mi
Dew Point: 25°   Wind: 0mph
Humidity: 56%   Direction: NA
Pressure: 30.17"   Gusts: NA
Location:  36.53°N, 83.22°W
Report Text: K0VG 182255Z AUTO 00000KT 10SM OVC041 04/M04 A3017 RMK AO2
Loading
Personal Weather Stations






























Interactive Weather Map New forecast layout! Learn more

10-Day Weather Forecast

Advertisements
Track Severe Weather on mobile